Time;durP1;ratioP1;P1;durP2;ratioP2;P2;SDS_P1;SDS_P2;PMS_P1;PMS_P2;Temp;Humidity;BMP_temperature;BMP_pressure;BME280_temperature;BME280_humidity;BME280_pressure;Samples;Min_cycle;Max_cycle;Signal;HPM_P1;HPM_P2
2024/01/03 00:01:18;;;;;;;;;;;17.00;68.70;;;;;;10173337;28;93765;-46
2024/01/03 00:06:19;;;;;;;;;;;17.00;69.00;;;;;;10181202;28;93446;-47
2024/01/03 00:11:22;;;;;;;;;;;17.00;68.60;;;;;;10184102;28;93640;-46
2024/01/03 00:16:26;;;;;;;;;;;16.90;68.30;;;;;;10184306;28;96055;-45
2024/01/03 00:21:29;;;;;;;;;;;17.00;68.00;;;;;;10193749;28;93529;-43
2024/01/03 00:26:32;;;;;;;;;;;17.00;67.60;;;;;;10189720;28;94327;-43
2024/01/03 00:31:38;;;;;;;;;;;16.90;67.40;;;;;;10201852;28;93493;-44
2024/01/03 00:36:40;;;;;;;;;;;17.00;67.00;;;;;;10192219;28;94118;-44
2024/01/03 00:41:42;;;;;;;;;;;16.90;66.60;;;;;;10211808;28;93466;-48
2024/01/03 00:46:44;;;;;;;;;;;16.90;66.40;;;;;;10196568;28;93671;-42
2024/01/03 00:51:46;;;;;;;;;;;16.90;66.30;;;;;;10186611;28;93836;-47
2024/01/03 00:56:48;;;;;;;;;;;16.80;66.60;;;;;;10195533;28;94002;-48
2024/01/03 01:01:51;;;;;;;;;;;16.90;68.00;;;;;;10191161;28;93938;-44
2024/01/03 01:06:52;;;;;;;;;;;16.80;66.70;;;;;;10197030;28;96915;-46
2024/01/03 01:11:54;;;;;;;;;;;16.80;66.60;;;;;;10195128;28;94128;-43
2024/01/03 01:16:56;;;;;;;;;;;16.90;66.30;;;;;;10193454;28;93971;-44
2024/01/03 01:21:57;;;;;;;;;;;16.80;65.90;;;;;;10187638;28;94418;-43
2024/01/03 01:26:59;;;;;;;;;;;16.80;65.70;;;;;;10198332;28;94530;-45
2024/01/03 01:32:02;;;;;;;;;;;16.80;65.40;;;;;;10180356;28;93869;-43
2024/01/03 01:37:04;;;;;;;;;;;16.80;65.10;;;;;;10184822;28;93811;-43
2024/01/03 01:42:05;;;;;;;;;;;16.80;64.80;;;;;;10183297;28;92728;-42
2024/01/03 01:47:11;;;;;;;;;;;16.80;64.90;;;;;;10178844;28;94167;-47
2024/01/03 01:52:13;;;;;;;;;;;16.70;65.50;;;;;;10191745;28;93461;-46
2024/01/03 01:57:15;;;;;;;;;;;16.70;65.80;;;;;;10196073;28;95854;-46
2024/01/03 02:02:17;;;;;;;;;;;16.70;65.60;;;;;;10559239;22;93899;-60
2024/01/03 02:07:19;;;;;;;;;;;16.70;65.20;;;;;;10089275;28;95784;-60
2024/01/03 02:12:30;;;;;;;;;;;16.70;65.10;;;;;;10114997;28;93106;-61
2024/01/03 02:17:32;;;;;;;;;;;16.70;64.70;;;;;;10118191;28;93846;-60
2024/01/03 02:22:35;;;;;;;;;;;16.70;64.70;;;;;;10117420;28;93856;-60
2024/01/03 02:27:36;;;;;;;;;;;16.70;64.30;;;;;;10120777;28;93810;-60
2024/01/03 02:32:38;;;;;;;;;;;16.70;64.20;;;;;;10099715;28;93766;-60
2024/01/03 02:37:40;;;;;;;;;;;16.70;64.00;;;;;;10110778;28;94295;-61
2024/01/03 02:42:42;;;;;;;;;;;16.70;64.30;;;;;;10116288;28;94439;-61
2024/01/03 02:47:44;;;;;;;;;;;16.70;64.90;;;;;;10117270;28;96196;-61
2024/01/03 02:52:46;;;;;;;;;;;16.60;65.10;;;;;;10115323;28;94233;-60
2024/01/03 02:57:47;;;;;;;;;;;16.60;65.00;;;;;;10114104;28;93507;-60
2024/01/03 03:02:49;;;;;;;;;;;16.70;64.70;;;;;;10110086;28;94384;-60
2024/01/03 03:07:51;;;;;;;;;;;16.60;64.40;;;;;;10112149;28;93968;-60
2024/01/03 03:12:53;;;;;;;;;;;16.70;64.10;;;;;;10115337;28;94791;-60
2024/01/03 03:17:55;;;;;;;;;;;16.70;63.90;;;;;;10112179;28;93536;-60
2024/01/03 03:22:57;;;;;;;;;;;16.70;63.70;;;;;;10117456;28;93781;-60
2024/01/03 03:27:59;;;;;;;;;;;16.70;63.30;;;;;;10126384;28;93407;-61
2024/01/03 03:33:00;;;;;;;;;;;16.70;63.30;;;;;;10118849;28;94800;-61
2024/01/03 03:38:02;;;;;;;;;;;16.60;63.40;;;;;;10116682;28;97005;-61
2024/01/03 03:43:04;;;;;;;;;;;16.60;64.00;;;;;;10118829;28;93715;-61
2024/01/03 03:48:05;;;;;;;;;;;16.60;64.10;;;;;;10127831;28;94503;-61
2024/01/03 03:53:10;;;;;;;;;;;16.60;63.90;;;;;;10120333;28;93314;-61
2024/01/03 03:58:12;;;;;;;;;;;16.60;63.40;;;;;;10115786;28;94757;-61
2024/01/03 04:03:14;;;;;;;;;;;16.60;63.00;;;;;;10113641;28;93472;-61
2024/01/03 04:08:16;;;;;;;;;;;16.70;62.90;;;;;;10119660;28;93473;-61
2024/01/03 04:13:18;;;;;;;;;;;16.70;62.60;;;;;;10118638;28;93775;-61
2024/01/03 04:18:19;;;;;;;;;;;16.70;62.40;;;;;;10113898;28;94310;-61
2024/01/03 04:23:21;;;;;;;;;;;16.70;62.30;;;;;;10129451;28;93632;-61
2024/01/03 04:28:23;;;;;;;;;;;16.70;62.40;;;;;;10118869;28;95519;-61
2024/01/03 04:33:25;;;;;;;;;;;16.60;62.60;;;;;;10118299;28;93528;-61
2024/01/03 04:38:27;;;;;;;;;;;16.60;63.30;;;;;;10113286;28;93508;-61
2024/01/03 04:43:29;;;;;;;;;;;16.50;63.70;;;;;;10132495;28;93532;-62
2024/01/03 04:48:30;;;;;;;;;;;16.50;64.00;;;;;;10136248;28;93839;-61
2024/01/03 04:53:32;;;;;;;;;;;16.50;64.20;;;;;;10116395;28;92851;-61
2024/01/03 04:58:34;;;;;;;;;;;16.50;64.30;;;;;;10122900;28;97237;-62
2024/01/03 05:03:36;;;;;;;;;;;16.50;64.50;;;;;;10120723;28;93260;-62
2024/01/03 05:08:38;;;;;;;;;;;16.40;64.60;;;;;;10117800;28;92711;-61
2024/01/03 05:13:40;;;;;;;;;;;16.40;64.70;;;;;;10109956;28;93755;-61
2024/01/03 05:18:41;;;;;;;;;;;16.40;64.90;;;;;;10133624;28;96932;-61
2024/01/03 05:23:43;;;;;;;;;;;16.40;65.00;;;;;;10115006;28;94062;-61
2024/01/03 05:28:45;;;;;;;;;;;16.40;65.00;;;;;;10119693;28;94941;-62
2024/01/03 05:33:47;;;;;;;;;;;16.40;65.20;;;;;;10112552;28;93071;-62
2024/01/03 05:38:49;;;;;;;;;;;16.40;65.20;;;;;;10104420;28;94290;-62
2024/01/03 05:43:51;;;;;;;;;;;16.40;65.40;;;;;;10114801;28;93607;-62
2024/01/03 05:48:52;;;;;;;;;;;16.40;65.70;;;;;;10111115;28;94878;-62
2024/01/03 05:53:54;;;;;;;;;;;16.50;65.90;;;;;;10111785;28;93653;-62
2024/01/03 05:58:56;;;;;;;;;;;16.60;65.90;;;;;;10122040;28;93417;-62
2024/01/03 06:03:58;;;;;;;;;;;16.70;65.70;;;;;;10120342;28;94802;-62
2024/01/03 06:09:00;;;;;;;;;;;16.80;65.60;;;;;;10113318;28;96878;-62
2024/01/03 06:14:02;;;;;;;;;;;16.80;65.50;;;;;;10111625;28;94077;-62
2024/01/03 06:19:03;;;;;;;;;;;16.80;65.40;;;;;;10122663;28;93199;-62
2024/01/03 06:24:05;;;;;;;;;;;16.90;65.40;;;;;;10123470;28;94834;-62
2024/01/03 06:29:07;;;;;;;;;;;16.80;65.40;;;;;;10111003;28;94659;-62
2024/01/03 06:34:09;;;;;;;;;;;16.80;65.60;;;;;;10111615;28;93530;-61
2024/01/03 06:39:11;;;;;;;;;;;16.80;65.60;;;;;;10119728;28;93774;-62
2024/01/03 06:44:12;;;;;;;;;;;16.80;65.70;;;;;;10110902;28;93299;-62
2024/01/03 06:49:14;;;;;;;;;;;16.80;65.90;;;;;;10109902;28;94420;-62
2024/01/03 06:54:16;;;;;;;;;;;16.80;66.00;;;;;;10111840;28;93326;-61
2024/01/03 06:59:18;;;;;;;;;;;16.80;66.10;;;;;;10102769;28;96039;-62
2024/01/03 07:04:22;;;;;;;;;;;16.70;66.20;;;;;;10121841;28;93124;-62
2024/01/03 07:09:27;;;;;;;;;;;16.70;66.20;;;;;;10123381;28;93567;-59
2024/01/03 07:14:29;;;;;;;;;;;16.70;66.30;;;;;;10133108;28;94442;-61
2024/01/03 07:19:30;;;;;;;;;;;16.70;66.40;;;;;;10117246;28;94758;-61
2024/01/03 07:24:33;;;;;;;;;;;16.70;66.40;;;;;;10112454;28;93846;-61
2024/01/03 07:29:34;;;;;;;;;;;16.70;66.50;;;;;;10135406;28;94109;-61
2024/01/03 07:34:36;;;;;;;;;;;16.70;66.60;;;;;;10124344;28;93050;-61
2024/01/03 07:39:38;;;;;;;;;;;16.70;66.70;;;;;;10126242;28;93682;-61
2024/01/03 07:44:42;;;;;;;;;;;16.70;66.80;;;;;;10109556;28;93459;-62
2024/01/03 07:49:44;;;;;;;;;;;16.70;66.80;;;;;;10102242;28;96415;-61
2024/01/03 07:54:46;;;;;;;;;;;16.70;67.00;;;;;;10110838;28;94196;-61
2024/01/03 07:59:48;;;;;;;;;;;16.70;67.00;;;;;;10127433;28;94711;-61
2024/01/03 08:04:50;;;;;;;;;;;16.70;67.10;;;;;;10105152;28;93083;-61
2024/01/03 08:09:51;;;;;;;;;;;16.60;67.10;;;;;;10113983;28;94171;-61
2024/01/03 08:14:53;;;;;;;;;;;16.60;67.10;;;;;;10122896;28;96645;-65
2024/01/03 08:19:55;;;;;;;;;;;16.60;67.30;;;;;;10102016;28;94155;-61
2024/01/03 08:24:57;;;;;;;;;;;16.60;67.30;;;;;;10110981;28;93564;-61
2024/01/03 08:29:59;;;;;;;;;;;16.60;67.30;;;;;;10120682;28;94364;-62
2024/01/03 08:35:01;;;;;;;;;;;16.60;67.50;;;;;;10129999;28;93382;-62
2024/01/03 08:40:03;;;;;;;;;;;16.60;67.60;;;;;;10107361;28;96346;-61
2024/01/03 08:45:09;;;;;;;;;;;16.60;67.70;;;;;;10122249;28;92701;-61
2024/01/03 08:50:11;;;;;;;;;;;16.60;67.80;;;;;;10127489;28;93421;-62
2024/01/03 08:55:13;;;;;;;;;;;16.60;67.90;;;;;;10126893;28;93775;-62
2024/01/03 09:00:15;;;;;;;;;;;16.50;68.00;;;;;;10127597;28;95200;-61
2024/01/03 09:05:18;;;;;;;;;;;16.50;68.10;;;;;;10117038;28;94438;-61
2024/01/03 09:10:20;;;;;;;;;;;16.60;68.30;;;;;;10121149;28;93395;-65
2024/01/03 09:15:21;;;;;;;;;;;16.60;68.30;;;;;;10114291;28;93043;-61
2024/01/03 09:20:23;;;;;;;;;;;16.50;68.30;;;;;;10115141;28;94785;-61
2024/01/03 09:25:25;;;;;;;;;;;16.60;69.30;;;;;;10122603;28;94101;-61
2024/01/03 09:30:26;;;;;;;;;;;16.60;70.80;;;;;;10110573;28;96541;-72
2024/01/03 09:35:28;;;;;;;;;;;16.60;70.90;;;;;;10125265;28;94599;-61
2024/01/03 09:40:31;;;;;;;;;;;16.70;70.80;;;;;;10109612;28;94257;-61
2024/01/03 09:45:33;;;;;;;;;;;16.70;70.90;;;;;;10120299;28;94768;-69
2024/01/03 09:50:35;;;;;;;;;;;16.70;71.30;;;;;;10108573;28;94869;-61
2024/01/03 09:55:37;;;;;;;;;;;16.80;70.90;;;;;;10115937;28;94065;-61
2024/01/03 10:00:39;;;;;;;;;;;16.90;70.90;;;;;;10111763;28;94450;-61
2024/01/03 10:05:41;;;;;;;;;;;17.00;70.90;;;;;;10116316;28;92826;-61
2024/01/03 10:10:45;;;;;;;;;;;17.20;70.90;;;;;;10120146;28;94082;-61
2024/01/03 10:15:47;;;;;;;;;;;17.20;70.80;;;;;;10110455;28;94437;-62
2024/01/03 10:20:49;;;;;;;;;;;17.30;70.80;;;;;;10114040;28;95754;-61
2024/01/03 10:25:55;;;;;;;;;;;17.30;70.80;;;;;;10113813;28;94188;-61
2024/01/03 10:30:59;;;;;;;;;;;17.40;71.00;;;;;;10125999;28;94462;-62
2024/01/03 10:36:07;;;;;;;;;;;17.40;70.90;;;;;;10118713;28;94091;-61
2024/01/03 10:41:09;;;;;;;;;;;17.40;71.00;;;;;;10116471;28;92544;-61
2024/01/03 10:46:11;;;;;;;;;;;17.40;70.80;;;;;;10104349;28;93450;-61
2024/01/03 10:51:13;;;;;;;;;;;17.40;70.60;;;;;;10106512;28;94748;-61
2024/01/03 10:56:16;;;;;;;;;;;17.40;70.70;;;;;;10079319;28;92729;-61
2024/01/03 11:01:20;;;;;;;;;;;17.40;70.80;;;;;;10106479;28;93385;-61
2024/01/03 11:06:35;;;;;;;;;;;17.30;70.80;;;;;;10117993;28;94700;-61
2024/01/03 11:11:39;;;;;;;;;;;17.30;71.00;;;;;;10119424;28;96472;-61
2024/01/03 11:16:41;;;;;;;;;;;17.30;70.80;;;;;;10122734;28;94494;-61
2024/01/03 11:21:45;;;;;;;;;;;17.30;70.80;;;;;;10115982;28;93309;-61
2024/01/03 11:26:54;;;;;;;;;;;17.30;70.90;;;;;;10117297;28;94531;-61
2024/01/03 11:31:58;;;;;;;;;;;17.30;70.90;;;;;;10109933;28;93824;-61
2024/01/03 11:37:00;;;;;;;;;;;17.40;70.90;;;;;;10128916;28;94253;-61
2024/01/03 11:42:04;;;;;;;;;;;17.50;70.70;;;;;;10118825;28;93882;-60
2024/01/03 11:47:06;;;;;;;;;;;17.60;70.40;;;;;;10091552;28;92668;-61
2024/01/03 11:52:08;;;;;;;;;;;17.50;70.10;;;;;;10131537;28;93494;-61
2024/01/03 11:57:10;;;;;;;;;;;17.50;69.90;;;;;;10120225;28;93437;-62
2024/01/03 12:02:12;;;;;;;;;;;17.50;69.80;;;;;;10118182;28;96817;-61
2024/01/03 12:07:14;;;;;;;;;;;17.50;69.70;;;;;;10113862;28;94641;-61
2024/01/03 12:12:16;;;;;;;;;;;17.50;69.60;;;;;;10118559;28;93590;-61
2024/01/03 12:17:30;;;;;;;;;;;17.60;69.50;;;;;;10123935;28;94106;-61
2024/01/03 12:22:32;;;;;;;;;;;17.50;69.40;;;;;;10126229;28;94448;-61
2024/01/03 12:27:34;;;;;;;;;;;17.50;69.40;;;;;;10132557;28;94437;-60
2024/01/03 12:32:36;;;;;;;;;;;17.50;69.40;;;;;;10104548;28;94429;-60
2024/01/03 12:37:46;;;;;;;;;;;17.50;69.30;;;;;;10125341;28;94717;-60
2024/01/03 12:42:51;;;;;;;;;;;17.40;69.20;;;;;;10129819;28;97105;-60
2024/01/03 12:47:52;;;;;;;;;;;17.40;69.10;;;;;;10117122;28;94057;-60
2024/01/03 12:52:54;;;;;;;;;;;17.40;69.20;;;;;;10124647;28;95861;-60
2024/01/03 12:57:56;;;;;;;;;;;17.40;69.10;;;;;;10122448;28;94485;-61
2024/01/03 13:02:58;;;;;;;;;;;17.40;69.00;;;;;;10126540;28;93521;-61
2024/01/03 13:08:00;;;;;;;;;;;17.40;69.00;;;;;;10120726;28;93558;-60
2024/01/03 13:13:02;;;;;;;;;;;17.40;69.00;;;;;;10126765;28;93393;-61
2024/01/03 13:18:04;;;;;;;;;;;17.40;68.90;;;;;;10124250;28;93853;-60
2024/01/03 13:23:06;;;;;;;;;;;17.40;68.90;;;;;;10123497;28;93390;-61
2024/01/03 13:28:09;;;;;;;;;;;17.40;69.90;;;;;;10118262;28;92929;-61
2024/01/03 13:33:10;;;;;;;;;;;17.40;68.90;;;;;;10119728;28;93889;-61
2024/01/03 13:38:14;;;;;;;;;;;17.30;68.90;;;;;;10125539;28;94054;-60
2024/01/03 13:43:16;;;;;;;;;;;17.30;69.00;;;;;;10111913;28;96239;-60
2024/01/03 13:48:18;;;;;;;;;;;17.30;69.00;;;;;;10122946;28;93941;-61
2024/01/03 13:53:20;;;;;;;;;;;17.20;69.00;;;;;;10124017;28;94536;-61
2024/01/03 13:58:22;;;;;;;;;;;17.20;69.20;;;;;;10125383;28;94238;-61
2024/01/03 14:03:24;;;;;;;;;;;17.10;69.20;;;;;;10125269;28;94550;-61
2024/01/03 14:08:26;;;;;;;;;;;17.20;69.50;;;;;;10123027;28;94910;-61
2024/01/03 14:13:27;;;;;;;;;;;17.10;69.40;;;;;;10114856;28;93685;-61
2024/01/03 14:18:29;;;;;;;;;;;17.10;69.40;;;;;;10115762;28;93241;-60
2024/01/03 14:23:31;;;;;;;;;;;17.00;69.50;;;;;;10110435;28;93386;-60
2024/01/03 14:28:33;;;;;;;;;;;17.00;69.50;;;;;;10124114;28;94076;-60
2024/01/03 14:33:35;;;;;;;;;;;17.00;69.60;;;;;;10111618;28;96635;-60
2024/01/03 14:38:39;;;;;;;;;;;17.00;69.60;;;;;;10124178;28;94546;-69
2024/01/03 14:43:44;;;;;;;;;;;16.90;69.40;;;;;;10106026;28;93433;-60
2024/01/03 14:48:46;;;;;;;;;;;16.90;69.40;;;;;;10114467;28;94638;-61
2024/01/03 14:53:49;;;;;;;;;;;16.90;70.10;;;;;;10113478;28;94760;-61
2024/01/03 14:58:52;;;;;;;;;;;16.90;69.50;;;;;;10127888;28;93811;-61
2024/01/03 15:03:53;;;;;;;;;;;16.80;69.50;;;;;;10120527;28;93791;-60
2024/01/03 15:08:55;;;;;;;;;;;16.80;69.50;;;;;;10116980;28;93121;-61
2024/01/03 15:13:57;;;;;;;;;;;16.80;69.50;;;;;;10115052;28;94839;-60
2024/01/03 15:18:59;;;;;;;;;;;16.80;69.40;;;;;;10116368;28;93755;-60
2024/01/03 15:24:03;;;;;;;;;;;16.70;69.40;;;;;;10130221;28;95920;-61
2024/01/03 15:29:10;;;;;;;;;;;16.70;69.40;;;;;;10118499;28;94624;-60
2024/01/03 15:34:12;;;;;;;;;;;16.70;69.40;;;;;;10110684;28;93407;-60
2024/01/03 15:39:14;;;;;;;;;;;16.70;69.40;;;;;;10106796;28;93470;-60
2024/01/03 15:44:16;;;;;;;;;;;16.70;69.50;;;;;;10103315;28;93416;-60
2024/01/03 15:49:18;;;;;;;;;;;16.70;69.40;;;;;;10116451;28;94467;-62
2024/01/03 15:54:20;;;;;;;;;;;16.70;69.50;;;;;;10108590;28;94002;-60
2024/01/03 15:59:37;;;;;;;;;;;16.60;69.40;;;;;;10123896;28;92693;-60
2024/01/03 16:04:40;;;;;;;;;;;16.60;69.50;;;;;;10122569;28;93947;-61
2024/01/03 16:09:42;;;;;;;;;;;16.60;69.40;;;;;;10117652;28;93848;-61
2024/01/03 16:14:44;;;;;;;;;;;16.60;69.90;;;;;;10126151;28;96985;-62
2024/01/03 16:19:46;;;;;;;;;;;16.60;71.00;;;;;;10125957;28;94880;-61
2024/01/03 16:24:48;;;;;;;;;;;16.80;74.30;;;;;;10124469;28;94621;-62
2024/01/03 16:29:50;;;;;;;;;;;17.00;73.30;;;;;;10121255;28;93421;-62
2024/01/03 16:34:52;;;;;;;;;;;17.20;77.50;;;;;;10112934;28;93092;-62
2024/01/03 16:39:56;;;;;;;;;;;17.50;74.80;;;;;;10129656;28;93794;-64
2024/01/03 16:44:57;;;;;;;;;;;17.60;75.30;;;;;;10110733;28;94677;-62
2024/01/03 16:49:59;;;;;;;;;;;17.80;81.20;;;;;;10133902;28;93452;-61
2024/01/03 16:55:04;;;;;;;;;;;17.80;76.40;;;;;;10114186;28;93470;-63
2024/01/03 17:00:07;;;;;;;;;;;17.90;76.70;;;;;;10107740;28;93544;-62
2024/01/03 17:05:10;;;;;;;;;;;18.00;75.20;;;;;;10115484;28;96607;-61
2024/01/03 17:10:13;;;;;;;;;;;18.00;75.30;;;;;;10117145;28;93651;-63
2024/01/03 17:15:15;;;;;;;;;;;18.00;74.90;;;;;;10117298;28;94157;-61
2024/01/03 17:20:17;;;;;;;;;;;18.00;74.90;;;;;;10095263;28;93642;-61
2024/01/03 17:25:20;;;;;;;;;;;18.00;75.00;;;;;;10111726;28;93618;-61
2024/01/03 17:30:22;;;;;;;;;;;18.00;74.70;;;;;;10105587;28;93617;-61
2024/01/03 17:35:24;;;;;;;;;;;18.00;74.70;;;;;;10103644;28;93447;-61
2024/01/03 17:40:27;;;;;;;;;;;18.00;75.10;;;;;;10109913;28;93695;-61
2024/01/03 17:45:29;;;;;;;;;;;18.00;75.10;;;;;;10092913;28;94666;-61
2024/01/03 17:50:31;;;;;;;;;;;18.10;75.50;;;;;;10099192;28;94156;-63
2024/01/03 17:55:33;;;;;;;;;;;18.10;75.60;;;;;;10097595;28;96040;-62
2024/01/03 18:00:34;;;;;;;;;;;18.20;75.90;;;;;;10109689;28;93097;-62
2024/01/03 18:05:37;;;;;;;;;;;18.20;75.70;;;;;;10093614;28;94797;-62
2024/01/03 18:10:40;;;;;;;;;;;18.30;75.40;;;;;;10102232;28;96393;-61
2024/01/03 18:15:42;;;;;;;;;;;18.30;75.50;;;;;;10113801;28;93657;-63
2024/01/03 18:20:45;;;;;;;;;;;18.40;75.60;;;;;;10108421;28;94626;-61
2024/01/03 18:25:50;;;;;;;;;;;18.40;75.10;;;;;;10114573;28;114499;-62
2024/01/03 18:30:53;;;;;;;;;;;18.50;75.20;;;;;;10116668;28;93695;-62
2024/01/03 18:35:55;;;;;;;;;;;18.50;75.00;;;;;;10097372;28;94528;-60
2024/01/03 18:40:57;;;;;;;;;;;18.50;75.20;;;;;;10117658;28;95977;-61
2024/01/03 18:45:59;;;;;;;;;;;18.50;75.20;;;;;;10101381;28;95893;-62
2024/01/03 18:51:01;;;;;;;;;;;18.50;75.10;;;;;;10116152;28;94124;-62
2024/01/03 18:56:03;;;;;;;;;;;18.50;74.90;;;;;;10106366;28;96078;-61
2024/01/03 19:01:05;;;;;;;;;;;18.40;74.40;;;;;;10107008;28;94124;-61
2024/01/03 19:06:08;;;;;;;;;;;18.40;74.40;;;;;;10104978;28;94453;-62
2024/01/03 19:11:10;;;;;;;;;;;18.30;74.50;;;;;;10102761;28;93754;-62
2024/01/03 19:16:12;;;;;;;;;;;18.20;74.60;;;;;;10105414;28;94601;-61
2024/01/03 19:21:14;;;;;;;;;;;18.20;74.80;;;;;;10109765;28;93341;-62
2024/01/03 19:26:16;;;;;;;;;;;18.20;74.90;;;;;;10110242;28;94441;-62
2024/01/03 19:31:18;;;;;;;;;;;18.30;74.90;;;;;;10115038;28;94544;-62
2024/01/03 19:36:20;;;;;;;;;;;18.30;74.90;;;;;;10113684;28;96655;-62
2024/01/03 19:41:23;;;;;;;;;;;18.20;74.80;;;;;;10111085;28;93954;-61
2024/01/03 19:46:25;;;;;;;;;;;18.20;74.50;;;;;;10111523;28;93971;-62
2024/01/03 19:51:27;;;;;;;;;;;18.20;74.40;;;;;;10115466;28;96333;-62
2024/01/03 19:56:30;;;;;;;;;;;18.20;74.40;;;;;;10116755;28;93452;-62
2024/01/03 20:01:31;;;;;;;;;;;18.20;74.20;;;;;;10107841;28;94414;-61
2024/01/03 20:06:33;;;;;;;;;;;18.20;74.20;;;;;;10117834;28;94089;-62
2024/01/03 20:11:42;;;;;;;;;;;18.10;74.20;;;;;;10133874;28;93669;-61
2024/01/03 20:16:45;;;;;;;;;;;18.10;74.30;;;;;;10100045;28;94261;-61
2024/01/03 20:21:47;;;;;;;;;;;18.10;74.10;;;;;;10107321;28;94401;-62
2024/01/03 20:26:50;;;;;;;;;;;18.10;74.20;;;;;;10106995;28;97036;-60
2024/01/03 20:31:52;;;;;;;;;;;18.10;74.20;;;;;;10118184;28;93677;-60
2024/01/03 20:36:55;;;;;;;;;;;18.10;74.10;;;;;;10114963;28;93435;-60
2024/01/03 20:41:59;;;;;;;;;;;18.10;74.00;;;;;;10110979;28;94412;-61
2024/01/03 20:47:01;;;;;;;;;;;18.20;74.90;;;;;;10124859;28;94695;-60
2024/01/03 20:52:02;;;;;;;;;;;18.20;74.50;;;;;;10130510;28;93983;-60
2024/01/03 20:57:05;;;;;;;;;;;18.20;74.10;;;;;;10118033;28;94765;-60
2024/01/03 21:02:08;;;;;;;;;;;18.20;74.20;;;;;;10120862;28;92796;-62
2024/01/03 21:07:09;;;;;;;;;;;18.10;74.00;;;;;;10123389;28;93351;-60
2024/01/03 21:12:11;;;;;;;;;;;18.10;73.90;;;;;;10118353;28;93471;-60
2024/01/03 21:17:13;;;;;;;;;;;18.10;74.00;;;;;;10124274;28;96894;-62
2024/01/03 21:22:15;;;;;;;;;;;18.00;73.90;;;;;;10102216;28;94102;-61
2024/01/03 21:27:17;;;;;;;;;;;18.00;74.00;;;;;;10115289;28;93526;-61
2024/01/03 21:32:39;;;;;;;;;;;18.00;74.00;;;;;;10124383;28;94683;-61
2024/01/03 21:37:41;;;;;;;;;;;17.90;73.90;;;;;;10120592;28;94119;-61
2024/01/03 21:42:45;;;;;;;;;;;17.90;73.90;;;;;;10124572;28;94065;-61
2024/01/03 21:47:47;;;;;;;;;;;17.80;73.80;;;;;;10122778;28;93505;-61
2024/01/03 21:52:50;;;;;;;;;;;17.80;74.10;;;;;;10116460;28;92248;-67
2024/01/03 21:57:54;;;;;;;;;;;17.80;73.90;;;;;;10138826;28;95999;-61
2024/01/03 22:02:56;;;;;;;;;;;17.80;74.10;;;;;;10125620;28;94863;-61
2024/01/03 22:07:58;;;;;;;;;;;17.70;74.10;;;;;;10116701;28;97077;-61
2024/01/03 22:13:00;;;;;;;;;;;17.70;74.10;;;;;;10122360;28;94543;-61
2024/01/03 22:18:02;;;;;;;;;;;17.70;74.10;;;;;;10113902;28;96995;-68
2024/01/03 22:23:09;;;;;;;;;;;17.60;74.10;;;;;;10125914;28;93769;-61
2024/01/03 22:28:11;;;;;;;;;;;17.60;74.10;;;;;;10117659;28;93435;-61
2024/01/03 22:33:12;;;;;;;;;;;17.50;74.10;;;;;;10116963;28;94564;-61
2024/01/03 22:38:15;;;;;;;;;;;17.50;74.00;;;;;;10127593;28;93453;-61
2024/01/03 22:43:16;;;;;;;;;;;17.50;73.90;;;;;;10107719;28;94178;-61
2024/01/03 22:48:18;;;;;;;;;;;17.40;73.90;;;;;;10095722;28;92993;-61
2024/01/03 22:53:20;;;;;;;;;;;17.40;73.90;;;;;;10118468;28;94280;-60
2024/01/03 22:58:23;;;;;;;;;;;17.40;73.90;;;;;;10118146;28;96299;-60
2024/01/03 23:03:25;;;;;;;;;;;17.30;73.80;;;;;;10123911;28;93750;-60
2024/01/03 23:08:27;;;;;;;;;;;17.30;73.80;;;;;;10105298;28;93610;-61
2024/01/03 23:13:28;;;;;;;;;;;17.30;73.40;;;;;;10091929;28;94021;-61
2024/01/03 23:18:30;;;;;;;;;;;17.30;73.00;;;;;;10092106;28;93533;-60
2024/01/03 23:23:32;;;;;;;;;;;17.20;72.40;;;;;;10092096;28;94150;-60
2024/01/03 23:28:46;;;;;;;;;;;17.30;72.00;;;;;;10093475;28;94207;-60
2024/01/03 23:33:48;;;;;;;;;;;17.20;71.50;;;;;;10097573;28;92741;-61
2024/01/03 23:38:51;;;;;;;;;;;17.20;71.10;;;;;;10095630;28;93445;-61
2024/01/03 23:43:53;;;;;;;;;;;17.20;70.70;;;;;;10095667;28;94857;-61
2024/01/03 23:48:55;;;;;;;;;;;17.20;70.30;;;;;;10108737;28;96974;-61
2024/01/03 23:53:57;;;;;;;;;;;17.20;70.10;;;;;;10098673;28;93973;-60
2024/01/03 23:58:59;;;;;;;;;;;17.20;70.40;;;;;;10106468;28;93984;-60
